sensor_id;sensor_type;location;lat;lon;timestamp;P1;durP1;ratioP1;P2;durP2;ratioP2
44842;SDS011;31884;52.538;13.820;2023-04-19T00:00:38;9.38;;;3.80;;
44842;SDS011;31884;52.538;13.820;2023-04-19T00:03:06;7.00;;;3.70;;
44842;SDS011;31884;52.538;13.820;2023-04-19T00:05:33;11.98;;;4.38;;
44842;SDS011;31884;52.538;13.820;2023-04-19T00:07:58;6.60;;;3.58;;
44842;SDS011;31884;52.538;13.820;2023-04-19T00:10:24;5.35;;;3.42;;
44842;SDS011;31884;52.538;13.820;2023-04-19T00:12:50;9.48;;;3.67;;
44842;SDS011;31884;52.538;13.820;2023-04-19T00:15:16;6.25;;;2.97;;
44842;SDS011;31884;52.538;13.820;2023-04-19T00:17:42;7.43;;;3.15;;
44842;SDS011;31884;52.538;13.820;2023-04-19T00:20:07;8.05;;;3.20;;
44842;SDS011;31884;52.538;13.820;2023-04-19T00:22:34;7.95;;;3.25;;
44842;SDS011;31884;52.538;13.820;2023-04-19T00:25:00;3.97;;;2.80;;
44842;SDS011;31884;52.538;13.820;2023-04-19T00:27:26;5.38;;;3.40;;
44842;SDS011;31884;52.538;13.820;2023-04-19T00:29:51;4.95;;;3.13;;
44842;SDS011;31884;52.538;13.820;2023-04-19T00:32:17;6.60;;;2.33;;
44842;SDS011;31884;52.538;13.820;2023-04-19T00:34:42;5.40;;;2.78;;
44842;SDS011;31884;52.538;13.820;2023-04-19T00:37:08;7.13;;;2.80;;
44842;SDS011;31884;52.538;13.820;2023-04-19T00:39:35;6.47;;;3.20;;
44842;SDS011;31884;52.538;13.820;2023-04-19T00:42:00;8.40;;;3.10;;
44842;SDS011;31884;52.538;13.820;2023-04-19T00:44:26;5.70;;;3.05;;
44842;SDS011;31884;52.538;13.820;2023-04-19T00:46:52;6.78;;;3.47;;
44842;SDS011;31884;52.538;13.820;2023-04-19T00:49:19;5.82;;;2.63;;
44842;SDS011;31884;52.538;13.820;2023-04-19T00:51:47;8.38;;;2.95;;
44842;SDS011;31884;52.538;13.820;2023-04-19T00:54:14;5.90;;;2.85;;
44842;SDS011;31884;52.538;13.820;2023-04-19T00:56:40;6.28;;;3.13;;
44842;SDS011;31884;52.538;13.820;2023-04-19T00:59:07;5.10;;;2.53;;
44842;SDS011;31884;52.538;13.820;2023-04-19T01:01:33;4.30;;;2.60;;
44842;SDS011;31884;52.538;13.820;2023-04-19T01:03:59;4.88;;;2.78;;
44842;SDS011;31884;52.538;13.820;2023-04-19T01:06:26;5.43;;;2.85;;
44842;SDS011;31884;52.538;13.820;2023-04-19T01:08:53;6.28;;;3.45;;
44842;SDS011;31884;52.538;13.820;2023-04-19T01:11:19;6.10;;;3.00;;
44842;SDS011;31884;52.538;13.820;2023-04-19T01:13:46;11.00;;;2.95;;
44842;SDS011;31884;52.538;13.820;2023-04-19T01:16:12;5.25;;;2.70;;
44842;SDS011;31884;52.538;13.820;2023-04-19T01:18:37;7.15;;;3.05;;
44842;SDS011;31884;52.538;13.820;2023-04-19T01:21:04;9.77;;;2.90;;
44842;SDS011;31884;52.538;13.820;2023-04-19T01:23:31;7.38;;;2.92;;
44842;SDS011;31884;52.538;13.820;2023-04-19T01:25:56;5.57;;;2.40;;
44842;SDS011;31884;52.538;13.820;2023-04-19T01:28:22;4.32;;;2.50;;
44842;SDS011;31884;52.538;13.820;2023-04-19T01:30:47;9.50;;;2.90;;
44842;SDS011;31884;52.538;13.820;2023-04-19T01:33:15;7.57;;;2.92;;
44842;SDS011;31884;52.538;13.820;2023-04-19T01:35:41;6.38;;;2.70;;
44842;SDS011;31884;52.538;13.820;2023-04-19T01:38:06;4.30;;;2.53;;
44842;SDS011;31884;52.538;13.820;2023-04-19T01:40:32;4.93;;;2.83;;
44842;SDS011;31884;52.538;13.820;2023-04-19T01:42:57;7.95;;;3.08;;
44842;SDS011;31884;52.538;13.820;2023-04-19T01:45:23;5.20;;;2.88;;
44842;SDS011;31884;52.538;13.820;2023-04-19T01:47:48;8.90;;;2.75;;
44842;SDS011;31884;52.538;13.820;2023-04-19T01:50:14;7.25;;;2.40;;
44842;SDS011;31884;52.538;13.820;2023-04-19T01:52:39;7.32;;;3.15;;
44842;SDS011;31884;52.538;13.820;2023-04-19T01:55:05;8.45;;;3.10;;
44842;SDS011;31884;52.538;13.820;2023-04-19T01:57:31;6.63;;;3.35;;
44842;SDS011;31884;52.538;13.820;2023-04-19T01:59:56;5.18;;;2.53;;
44842;SDS011;31884;52.538;13.820;2023-04-19T02:02:22;5.53;;;2.28;;
44842;SDS011;31884;52.538;13.820;2023-04-19T02:04:47;8.85;;;2.85;;
44842;SDS011;31884;52.538;13.820;2023-04-19T02:07:13;7.03;;;3.15;;
44842;SDS011;31884;52.538;13.820;2023-04-19T02:09:38;5.38;;;2.70;;
44842;SDS011;31884;52.538;13.820;2023-04-19T02:12:04;8.95;;;3.28;;
44842;SDS011;31884;52.538;13.820;2023-04-19T02:14:29;5.63;;;3.00;;
44842;SDS011;31884;52.538;13.820;2023-04-19T02:16:56;4.47;;;2.72;;
44842;SDS011;31884;52.538;13.820;2023-04-19T02:19:22;4.43;;;2.50;;
44842;SDS011;31884;52.538;13.820;2023-04-19T02:21:48;7.68;;;2.83;;
44842;SDS011;31884;52.538;13.820;2023-04-19T02:24:13;4.88;;;3.13;;
44842;SDS011;31884;52.538;13.820;2023-04-19T02:26:39;6.68;;;3.03;;
44842;SDS011;31884;52.538;13.820;2023-04-19T02:29:05;5.00;;;2.92;;
44842;SDS011;31884;52.538;13.820;2023-04-19T02:31:31;7.32;;;3.33;;
44842;SDS011;31884;52.538;13.820;2023-04-19T02:33:56;6.20;;;2.63;;
44842;SDS011;31884;52.538;13.820;2023-04-19T02:36:22;6.68;;;2.97;;
44842;SDS011;31884;52.538;13.820;2023-04-19T02:38:48;6.80;;;3.05;;
44842;SDS011;31884;52.538;13.820;2023-04-19T02:41:13;7.43;;;2.60;;
44842;SDS011;31884;52.538;13.820;2023-04-19T02:43:39;7.40;;;3.20;;
44842;SDS011;31884;52.538;13.820;2023-04-19T02:46:05;7.78;;;3.28;;
44842;SDS011;31884;52.538;13.820;2023-04-19T02:48:30;7.35;;;3.58;;
44842;SDS011;31884;52.538;13.820;2023-04-19T02:50:56;7.82;;;3.33;;
44842;SDS011;31884;52.538;13.820;2023-04-19T02:53:21;6.25;;;3.20;;
44842;SDS011;31884;52.538;13.820;2023-04-19T02:55:47;6.03;;;3.13;;
44842;SDS011;31884;52.538;13.820;2023-04-19T02:58:12;10.48;;;3.83;;
44842;SDS011;31884;52.538;13.820;2023-04-19T03:00:38;7.18;;;3.78;;
44842;SDS011;31884;52.538;13.820;2023-04-19T03:03:03;6.13;;;3.28;;
44842;SDS011;31884;52.538;13.820;2023-04-19T03:05:29;7.20;;;3.47;;
44842;SDS011;31884;52.538;13.820;2023-04-19T03:07:55;5.78;;;2.55;;
44842;SDS011;31884;52.538;13.820;2023-04-19T03:10:20;8.05;;;3.33;;
44842;SDS011;31884;52.538;13.820;2023-04-19T03:12:45;5.18;;;2.83;;
44842;SDS011;31884;52.538;13.820;2023-04-19T03:15:11;10.25;;;3.30;;
44842;SDS011;31884;52.538;13.820;2023-04-19T03:17:37;7.78;;;3.40;;
44842;SDS011;31884;52.538;13.820;2023-04-19T03:20:02;5.97;;;3.05;;
44842;SDS011;31884;52.538;13.820;2023-04-19T03:22:34;9.15;;;3.00;;
44842;SDS011;31884;52.538;13.820;2023-04-19T03:25:00;5.35;;;2.53;;
44842;SDS011;31884;52.538;13.820;2023-04-19T03:27:25;4.40;;;2.45;;
44842;SDS011;31884;52.538;13.820;2023-04-19T03:29:51;5.30;;;3.00;;
44842;SDS011;31884;52.538;13.820;2023-04-19T03:32:16;4.82;;;2.25;;
44842;SDS011;31884;52.538;13.820;2023-04-19T03:34:42;7.10;;;2.92;;
44842;SDS011;31884;52.538;13.820;2023-04-19T03:37:07;8.00;;;3.05;;
44842;SDS011;31884;52.538;13.820;2023-04-19T03:39:33;6.47;;;2.95;;
44842;SDS011;31884;52.538;13.820;2023-04-19T03:41:59;7.50;;;3.13;;
44842;SDS011;31884;52.538;13.820;2023-04-19T03:44:25;5.90;;;3.00;;
44842;SDS011;31884;52.538;13.820;2023-04-19T03:46:50;7.10;;;3.08;;
44842;SDS011;31884;52.538;13.820;2023-04-19T03:49:16;6.15;;;2.60;;
44842;SDS011;31884;52.538;13.820;2023-04-19T03:51:41;5.43;;;2.45;;
44842;SDS011;31884;52.538;13.820;2023-04-19T03:54:07;7.05;;;2.55;;
44842;SDS011;31884;52.538;13.820;2023-04-19T03:56:32;5.88;;;2.40;;
44842;SDS011;31884;52.538;13.820;2023-04-19T03:58:58;5.65;;;2.25;;
44842;SDS011;31884;52.538;13.820;2023-04-19T04:01:24;6.45;;;2.70;;
44842;SDS011;31884;52.538;13.820;2023-04-19T04:03:50;3.50;;;2.17;;
44842;SDS011;31884;52.538;13.820;2023-04-19T04:06:16;4.15;;;2.45;;
44842;SDS011;31884;52.538;13.820;2023-04-19T04:08:41;4.32;;;2.15;;
44842;SDS011;31884;52.538;13.820;2023-04-19T04:11:07;4.00;;;1.95;;
44842;SDS011;31884;52.538;13.820;2023-04-19T04:13:32;9.05;;;2.50;;
44842;SDS011;31884;52.538;13.820;2023-04-19T04:15:58;4.30;;;2.28;;
44842;SDS011;31884;52.538;13.820;2023-04-19T04:18:24;7.45;;;2.72;;
44842;SDS011;31884;52.538;13.820;2023-04-19T04:20:51;4.45;;;2.28;;
44842;SDS011;31884;52.538;13.820;2023-04-19T04:23:16;7.25;;;2.53;;
44842;SDS011;31884;52.538;13.820;2023-04-19T04:25:41;6.40;;;1.70;;
44842;SDS011;31884;52.538;13.820;2023-04-19T04:28:07;5.60;;;2.33;;
44842;SDS011;31884;52.538;13.820;2023-04-19T04:30:32;2.95;;;1.77;;
44842;SDS011;31884;52.538;13.820;2023-04-19T04:32:58;5.15;;;1.90;;
44842;SDS011;31884;52.538;13.820;2023-04-19T04:35:25;3.33;;;2.00;;
44842;SDS011;31884;52.538;13.820;2023-04-19T04:37:51;5.47;;;2.13;;
44842;SDS011;31884;52.538;13.820;2023-04-19T04:40:19;9.70;;;2.42;;
44842;SDS011;31884;52.538;13.820;2023-04-19T04:42:45;5.63;;;2.42;;
44842;SDS011;31884;52.538;13.820;2023-04-19T04:45:11;4.97;;;1.95;;
44842;SDS011;31884;52.538;13.820;2023-04-19T04:47:36;7.32;;;2.80;;
44842;SDS011;31884;52.538;13.820;2023-04-19T04:50:02;5.38;;;2.20;;
44842;SDS011;31884;52.538;13.820;2023-04-19T04:52:28;4.25;;;1.95;;
44842;SDS011;31884;52.538;13.820;2023-04-19T04:54:54;5.90;;;2.30;;
44842;SDS011;31884;52.538;13.820;2023-04-19T04:57:20;5.80;;;2.05;;
44842;SDS011;31884;52.538;13.820;2023-04-19T04:59:45;3.92;;;2.10;;
44842;SDS011;31884;52.538;13.820;2023-04-19T05:02:12;3.85;;;2.10;;
44842;SDS011;31884;52.538;13.820;2023-04-19T05:04:38;3.22;;;1.65;;
44842;SDS011;31884;52.538;13.820;2023-04-19T05:07:03;11.27;;;2.47;;
44842;SDS011;31884;52.538;13.820;2023-04-19T05:09:29;2.63;;;1.70;;
44842;SDS011;31884;52.538;13.820;2023-04-19T05:11:55;2.60;;;1.45;;
44842;SDS011;31884;52.538;13.820;2023-04-19T05:14:20;3.58;;;1.88;;
44842;SDS011;31884;52.538;13.820;2023-04-19T05:16:45;2.92;;;1.70;;
44842;SDS011;31884;52.538;13.820;2023-04-19T05:19:11;3.35;;;1.40;;
44842;SDS011;31884;52.538;13.820;2023-04-19T05:21:36;3.75;;;1.70;;
44842;SDS011;31884;52.538;13.820;2023-04-19T05:24:02;4.15;;;2.03;;
44842;SDS011;31884;52.538;13.820;2023-04-19T05:26:28;4.40;;;1.83;;
44842;SDS011;31884;52.538;13.820;2023-04-19T05:28:53;4.30;;;1.50;;
44842;SDS011;31884;52.538;13.820;2023-04-19T05:31:20;5.30;;;2.13;;
44842;SDS011;31884;52.538;13.820;2023-04-19T05:33:46;3.65;;;1.42;;
44842;SDS011;31884;52.538;13.820;2023-04-19T05:36:11;4.40;;;1.48;;
44842;SDS011;31884;52.538;13.820;2023-04-19T05:38:37;3.25;;;1.80;;
44842;SDS011;31884;52.538;13.820;2023-04-19T05:41:03;2.97;;;1.35;;
44842;SDS011;31884;52.538;13.820;2023-04-19T05:43:29;3.63;;;1.90;;
44842;SDS011;31884;52.538;13.820;2023-04-19T05:45:55;5.25;;;2.00;;
44842;SDS011;31884;52.538;13.820;2023-04-19T05:48:20;3.60;;;1.92;;
44842;SDS011;31884;52.538;13.820;2023-04-19T05:50:46;3.53;;;1.70;;
44842;SDS011;31884;52.538;13.820;2023-04-19T05:53:11;2.67;;;1.75;;
44842;SDS011;31884;52.538;13.820;2023-04-19T05:55:37;3.30;;;1.50;;
44842;SDS011;31884;52.538;13.820;2023-04-19T05:58:02;5.30;;;2.22;;
44842;SDS011;31884;52.538;13.820;2023-04-19T06:00:28;3.10;;;1.50;;
44842;SDS011;31884;52.538;13.820;2023-04-19T06:02:53;3.40;;;1.50;;
44842;SDS011;31884;52.538;13.820;2023-04-19T06:05:19;3.25;;;1.92;;
44842;SDS011;31884;52.538;13.820;2023-04-19T06:07:44;4.47;;;1.80;;
44842;SDS011;31884;52.538;13.820;2023-04-19T06:10:10;2.92;;;1.25;;
44842;SDS011;31884;52.538;13.820;2023-04-19T06:12:36;1.63;;;1.13;;
44842;SDS011;31884;52.538;13.820;2023-04-19T06:15:01;3.50;;;1.17;;
44842;SDS011;31884;52.538;13.820;2023-04-19T06:17:27;6.63;;;1.80;;
44842;SDS011;31884;52.538;13.820;2023-04-19T06:19:53;2.80;;;1.70;;
44842;SDS011;31884;52.538;13.820;2023-04-19T06:22:19;3.35;;;1.88;;
44842;SDS011;31884;52.538;13.820;2023-04-19T06:24:45;4.50;;;1.70;;
44842;SDS011;31884;52.538;13.820;2023-04-19T06:27:11;3.00;;;1.63;;
44842;SDS011;31884;52.538;13.820;2023-04-19T06:29:37;4.10;;;1.52;;
44842;SDS011;31884;52.538;13.820;2023-04-19T06:32:02;4.45;;;1.50;;
44842;SDS011;31884;52.538;13.820;2023-04-19T06:34:28;4.78;;;1.65;;
44842;SDS011;31884;52.538;13.820;2023-04-19T06:36:53;3.67;;;1.70;;
44842;SDS011;31884;52.538;13.820;2023-04-19T06:39:19;4.57;;;1.80;;
44842;SDS011;31884;52.538;13.820;2023-04-19T06:41:44;4.90;;;1.80;;
44842;SDS011;31884;52.538;13.820;2023-04-19T06:44:10;4.53;;;1.60;;
44842;SDS011;31884;52.538;13.820;2023-04-19T06:46:35;5.65;;;2.08;;
44842;SDS011;31884;52.538;13.820;2023-04-19T06:49:01;5.90;;;1.88;;
44842;SDS011;31884;52.538;13.820;2023-04-19T06:51:26;5.53;;;1.80;;
44842;SDS011;31884;52.538;13.820;2023-04-19T06:53:52;3.03;;;1.55;;
44842;SDS011;31884;52.538;13.820;2023-04-19T06:56:17;4.75;;;1.65;;
44842;SDS011;31884;52.538;13.820;2023-04-19T06:59:10;4.60;;;1.40;;
44842;SDS011;31884;52.538;13.820;2023-04-19T07:01:37;3.15;;;1.48;;
44842;SDS011;31884;52.538;13.820;2023-04-19T07:04:03;5.32;;;1.77;;
44842;SDS011;31884;52.538;13.820;2023-04-19T07:06:29;5.00;;;1.55;;
44842;SDS011;31884;52.538;13.820;2023-04-19T07:08:55;4.28;;;1.50;;
44842;SDS011;31884;52.538;13.820;2023-04-19T07:11:20;6.28;;;1.88;;
44842;SDS011;31884;52.538;13.820;2023-04-19T07:13:46;5.93;;;1.80;;
44842;SDS011;31884;52.538;13.820;2023-04-19T07:16:11;3.88;;;1.90;;
44842;SDS011;31884;52.538;13.820;2023-04-19T07:18:38;3.65;;;1.60;;
44842;SDS011;31884;52.538;13.820;2023-04-19T07:21:04;2.70;;;1.52;;
44842;SDS011;31884;52.538;13.820;2023-04-19T07:23:29;3.80;;;1.83;;
44842;SDS011;31884;52.538;13.820;2023-04-19T07:25:55;5.10;;;1.90;;
44842;SDS011;31884;52.538;13.820;2023-04-19T07:28:21;5.93;;;1.88;;
44842;SDS011;31884;52.538;13.820;2023-04-19T07:30:46;5.53;;;2.10;;
44842;SDS011;31884;52.538;13.820;2023-04-19T07:33:12;5.38;;;2.35;;
44842;SDS011;31884;52.538;13.820;2023-04-19T07:35:37;6.07;;;2.28;;
44842;SDS011;31884;52.538;13.820;2023-04-19T07:38:03;3.65;;;1.83;;
44842;SDS011;31884;52.538;13.820;2023-04-19T07:40:28;4.45;;;2.55;;
44842;SDS011;31884;52.538;13.820;2023-04-19T07:42:54;3.50;;;1.90;;
44842;SDS011;31884;52.538;13.820;2023-04-19T07:45:20;6.55;;;1.98;;
44842;SDS011;31884;52.538;13.820;2023-04-19T07:47:46;5.38;;;2.13;;
44842;SDS011;31884;52.538;13.820;2023-04-19T07:50:11;5.55;;;2.28;;
44842;SDS011;31884;52.538;13.820;2023-04-19T07:52:37;4.68;;;2.10;;
44842;SDS011;31884;52.538;13.820;2023-04-19T07:55:02;3.47;;;1.77;;
44842;SDS011;31884;52.538;13.820;2023-04-19T07:57:28;5.55;;;2.40;;
44842;SDS011;31884;52.538;13.820;2023-04-19T07:59:53;8.07;;;2.78;;
44842;SDS011;31884;52.538;13.820;2023-04-19T08:02:24;5.30;;;2.63;;
44842;SDS011;31884;52.538;13.820;2023-04-19T08:04:50;5.25;;;2.42;;
44842;SDS011;31884;52.538;13.820;2023-04-19T08:07:16;7.05;;;3.00;;
44842;SDS011;31884;52.538;13.820;2023-04-19T08:09:41;5.20;;;2.42;;
44842;SDS011;31884;52.538;13.820;2023-04-19T08:12:07;6.45;;;2.67;;
44842;SDS011;31884;52.538;13.820;2023-04-19T08:14:32;6.40;;;2.58;;
44842;SDS011;31884;52.538;13.820;2023-04-19T08:16:58;4.63;;;2.25;;
44842;SDS011;31884;52.538;13.820;2023-04-19T08:19:23;4.30;;;2.45;;
44842;SDS011;31884;52.538;13.820;2023-04-19T08:21:49;4.00;;;2.40;;
44842;SDS011;31884;52.538;13.820;2023-04-19T08:24:14;5.93;;;2.40;;
44842;SDS011;31884;52.538;13.820;2023-04-19T08:26:40;5.82;;;2.42;;
44842;SDS011;31884;52.538;13.820;2023-04-19T08:29:06;4.38;;;2.13;;
44842;SDS011;31884;52.538;13.820;2023-04-19T08:31:31;8.35;;;3.00;;
44842;SDS011;31884;52.538;13.820;2023-04-19T08:33:57;5.53;;;2.78;;
44842;SDS011;31884;52.538;13.820;2023-04-19T08:36:24;7.40;;;2.60;;
44842;SDS011;31884;52.538;13.820;2023-04-19T08:38:50;7.68;;;2.67;;
44842;SDS011;31884;52.538;13.820;2023-04-19T08:41:16;6.95;;;2.90;;
44842;SDS011;31884;52.538;13.820;2023-04-19T08:43:42;7.90;;;2.95;;
44842;SDS011;31884;52.538;13.820;2023-04-19T08:46:11;6.80;;;3.20;;
44842;SDS011;31884;52.538;13.820;2023-04-19T08:48:37;4.60;;;2.67;;
44842;SDS011;31884;52.538;13.820;2023-04-19T08:51:04;7.30;;;2.50;;
44842;SDS011;31884;52.538;13.820;2023-04-19T08:53:32;6.07;;;2.70;;
44842;SDS011;31884;52.538;13.820;2023-04-19T08:55:58;6.55;;;3.22;;
44842;SDS011;31884;52.538;13.820;2023-04-19T08:58:25;5.95;;;3.20;;
44842;SDS011;31884;52.538;13.820;2023-04-19T09:00:53;6.95;;;3.05;;
44842;SDS011;31884;52.538;13.820;2023-04-19T09:03:19;7.45;;;3.20;;
44842;SDS011;31884;52.538;13.820;2023-04-19T09:05:45;8.52;;;2.90;;
44842;SDS011;31884;52.538;13.820;2023-04-19T09:08:26;9.18;;;3.83;;
44842;SDS011;31884;52.538;13.820;2023-04-19T09:10:57;6.35;;;3.28;;
44842;SDS011;31884;52.538;13.820;2023-04-19T09:13:23;5.65;;;2.92;;
44842;SDS011;31884;52.538;13.820;2023-04-19T09:15:50;6.90;;;3.20;;
44842;SDS011;31884;52.538;13.820;2023-04-19T09:18:17;8.70;;;3.10;;
44842;SDS011;31884;52.538;13.820;2023-04-19T09:20:43;5.22;;;2.80;;
44842;SDS011;31884;52.538;13.820;2023-04-19T09:23:10;6.82;;;3.47;;
44842;SDS011;31884;52.538;13.820;2023-04-19T09:25:37;7.60;;;3.65;;
44842;SDS011;31884;52.538;13.820;2023-04-19T09:28:10;7.03;;;2.92;;
44842;SDS011;31884;52.538;13.820;2023-04-19T09:30:37;8.57;;;2.85;;
44842;SDS011;31884;52.538;13.820;2023-04-19T09:33:03;8.30;;;3.40;;
44842;SDS011;31884;52.538;13.820;2023-04-19T09:35:38;6.60;;;3.17;;
44842;SDS011;31884;52.538;13.820;2023-04-19T09:38:05;7.78;;;3.17;;
44842;SDS011;31884;52.538;13.820;2023-04-19T09:40:31;4.43;;;2.35;;
44842;SDS011;31884;52.538;13.820;2023-04-19T09:42:56;5.80;;;2.72;;
44842;SDS011;31884;52.538;13.820;2023-04-19T09:45:22;7.20;;;2.63;;
44842;SDS011;31884;52.538;13.820;2023-04-19T09:48:04;6.25;;;2.78;;
44842;SDS011;31884;52.538;13.820;2023-04-19T09:50:31;8.90;;;2.80;;
44842;SDS011;31884;52.538;13.820;2023-04-19T09:52:57;6.05;;;2.97;;
44842;SDS011;31884;52.538;13.820;2023-04-19T09:55:23;7.40;;;3.60;;
44842;SDS011;31884;52.538;13.820;2023-04-19T09:57:51;6.47;;;2.90;;
44842;SDS011;31884;52.538;13.820;2023-04-19T10:00:17;10.82;;;3.20;;
44842;SDS011;31884;52.538;13.820;2023-04-19T10:02:43;3.60;;;2.50;;
44842;SDS011;31884;52.538;13.820;2023-04-19T10:05:11;8.07;;;3.03;;
44842;SDS011;31884;52.538;13.820;2023-04-19T10:07:39;7.22;;;3.30;;
44842;SDS011;31884;52.538;13.820;2023-04-19T10:10:05;4.50;;;2.72;;
44842;SDS011;31884;52.538;13.820;2023-04-19T10:12:32;7.50;;;3.45;;
44842;SDS011;31884;52.538;13.820;2023-04-19T10:14:59;8.50;;;3.22;;
44842;SDS011;31884;52.538;13.820;2023-04-19T10:17:25;8.98;;;2.90;;
44842;SDS011;31884;52.538;13.820;2023-04-19T10:19:51;6.57;;;3.05;;
44842;SDS011;31884;52.538;13.820;2023-04-19T10:22:23;6.00;;;2.97;;
44842;SDS011;31884;52.538;13.820;2023-04-19T10:25:08;9.43;;;4.00;;
44842;SDS011;31884;52.538;13.820;2023-04-19T10:27:38;8.63;;;2.85;;
44842;SDS011;31884;52.538;13.820;2023-04-19T10:30:05;6.35;;;2.70;;
44842;SDS011;31884;52.538;13.820;2023-04-19T10:32:40;5.03;;;2.80;;
44842;SDS011;31884;52.538;13.820;2023-04-19T10:35:17;7.25;;;2.97;;
44842;SDS011;31884;52.538;13.820;2023-04-19T10:38:01;8.05;;;3.70;;
44842;SDS011;31884;52.538;13.820;2023-04-19T10:43:20;5.28;;;3.05;;
44842;SDS011;31884;52.538;13.820;2023-04-19T10:45:49;7.57;;;3.42;;
44842;SDS011;31884;52.538;13.820;2023-04-19T10:48:30;8.75;;;3.50;;
44842;SDS011;31884;52.538;13.820;2023-04-19T10:51:15;5.00;;;2.70;;
44842;SDS011;31884;52.538;13.820;2023-04-19T10:56:55;8.27;;;3.90;;
44842;SDS011;31884;52.538;13.820;2023-04-19T10:59:28;7.15;;;3.50;;
44842;SDS011;31884;52.538;13.820;2023-04-19T11:01:58;14.48;;;3.58;;
44842;SDS011;31884;52.538;13.820;2023-04-19T11:06:56;7.43;;;3.53;;
44842;SDS011;31884;52.538;13.820;2023-04-19T11:11:56;10.45;;;3.38;;
44842;SDS011;31884;52.538;13.820;2023-04-19T11:14:23;10.20;;;4.03;;
44842;SDS011;31884;52.538;13.820;2023-04-19T11:16:50;6.22;;;3.13;;
44842;SDS011;31884;52.538;13.820;2023-04-19T11:19:15;5.78;;;3.47;;
44842;SDS011;31884;52.538;13.820;2023-04-19T11:21:43;5.18;;;2.88;;
44842;SDS011;31884;52.538;13.820;2023-04-19T11:24:10;8.75;;;3.50;;
44842;SDS011;31884;52.538;13.820;2023-04-19T11:26:36;6.57;;;2.88;;
44842;SDS011;31884;52.538;13.820;2023-04-19T11:29:02;8.10;;;2.90;;
44842;SDS011;31884;52.538;13.820;2023-04-19T11:31:27;5.70;;;2.83;;
44842;SDS011;31884;52.538;13.820;2023-04-19T11:33:57;5.93;;;2.80;;
44842;SDS011;31884;52.538;13.820;2023-04-19T11:36:23;5.88;;;2.42;;
44842;SDS011;31884;52.538;13.820;2023-04-19T11:38:49;7.50;;;3.55;;
44842;SDS011;31884;52.538;13.820;2023-04-19T11:41:16;7.07;;;3.35;;
44842;SDS011;31884;52.538;13.820;2023-04-19T11:43:41;8.52;;;3.95;;
44842;SDS011;31884;52.538;13.820;2023-04-19T11:46:09;7.80;;;3.85;;
44842;SDS011;31884;52.538;13.820;2023-04-19T11:48:36;8.98;;;3.13;;
44842;SDS011;31884;52.538;13.820;2023-04-19T11:51:02;5.65;;;2.70;;
44842;SDS011;31884;52.538;13.820;2023-04-19T11:53:29;9.80;;;3.47;;
44842;SDS011;31884;52.538;13.820;2023-04-19T12:01:01;7.32;;;3.15;;
44842;SDS011;31884;52.538;13.820;2023-04-19T12:03:28;5.72;;;2.83;;
44842;SDS011;31884;52.538;13.820;2023-04-19T12:05:54;9.00;;;3.03;;
44842;SDS011;31884;52.538;13.820;2023-04-19T12:11:21;8.18;;;3.47;;
44842;SDS011;31884;52.538;13.820;2023-04-19T12:13:48;8.02;;;3.42;;
44842;SDS011;31884;52.538;13.820;2023-04-19T12:16:35;9.60;;;3.50;;
44842;SDS011;31884;52.538;13.820;2023-04-19T12:19:14;6.53;;;3.05;;
44842;SDS011;31884;52.538;13.820;2023-04-19T12:21:44;5.13;;;2.80;;
44842;SDS011;31884;52.538;13.820;2023-04-19T12:24:10;12.05;;;3.38;;
44842;SDS011;31884;52.538;13.820;2023-04-19T12:26:51;6.50;;;3.25;;
44842;SDS011;31884;52.538;13.820;2023-04-19T12:29:18;5.57;;;2.72;;
44842;SDS011;31884;52.538;13.820;2023-04-19T12:31:44;7.55;;;3.10;;
44842;SDS011;31884;52.538;13.820;2023-04-19T12:34:09;9.98;;;2.97;;
44842;SDS011;31884;52.538;13.820;2023-04-19T12:36:35;10.70;;;3.63;;
44842;SDS011;31884;52.538;13.820;2023-04-19T12:39:00;8.88;;;2.83;;
44842;SDS011;31884;52.538;13.820;2023-04-19T12:41:26;10.98;;;3.35;;
44842;SDS011;31884;52.538;13.820;2023-04-19T12:43:51;6.97;;;3.45;;
44842;SDS011;31884;52.538;13.820;2023-04-19T12:46:17;5.13;;;3.28;;
44842;SDS011;31884;52.538;13.820;2023-04-19T12:48:42;5.25;;;2.75;;
44842;SDS011;31884;52.538;13.820;2023-04-19T12:51:08;6.55;;;3.17;;
44842;SDS011;31884;52.538;13.820;2023-04-19T12:53:33;6.80;;;3.63;;
44842;SDS011;31884;52.538;13.820;2023-04-19T12:55:59;7.95;;;3.45;;
44842;SDS011;31884;52.538;13.820;2023-04-19T12:58:24;7.40;;;3.58;;
44842;SDS011;31884;52.538;13.820;2023-04-19T13:00:51;11.35;;;4.20;;
44842;SDS011;31884;52.538;13.820;2023-04-19T13:03:17;6.72;;;3.55;;
44842;SDS011;31884;52.538;13.820;2023-04-19T13:05:42;5.03;;;3.40;;
44842;SDS011;31884;52.538;13.820;2023-04-19T13:08:08;6.07;;;3.15;;
44842;SDS011;31884;52.538;13.820;2023-04-19T13:10:33;7.10;;;3.78;;
44842;SDS011;31884;52.538;13.820;2023-04-19T13:12:59;11.00;;;4.00;;
44842;SDS011;31884;52.538;13.820;2023-04-19T13:15:25;6.22;;;3.80;;
44842;SDS011;31884;52.538;13.820;2023-04-19T13:17:50;9.55;;;3.90;;
44842;SDS011;31884;52.538;13.820;2023-04-19T13:20:19;7.43;;;3.30;;
44842;SDS011;31884;52.538;13.820;2023-04-19T13:22:45;6.88;;;2.83;;
44842;SDS011;31884;52.538;13.820;2023-04-19T13:25:11;9.23;;;2.97;;
44842;SDS011;31884;52.538;13.820;2023-04-19T13:27:36;9.90;;;3.75;;
44842;SDS011;31884;52.538;13.820;2023-04-19T13:30:02;7.30;;;3.00;;
44842;SDS011;31884;52.538;13.820;2023-04-19T13:32:28;10.23;;;3.38;;
44842;SDS011;31884;52.538;13.820;2023-04-19T13:34:53;10.07;;;4.18;;
44842;SDS011;31884;52.538;13.820;2023-04-19T13:37:19;7.97;;;3.75;;
44842;SDS011;31884;52.538;13.820;2023-04-19T13:39:44;6.63;;;4.13;;
44842;SDS011;31884;52.538;13.820;2023-04-19T13:42:10;6.60;;;3.30;;
44842;SDS011;31884;52.538;13.820;2023-04-19T13:44:36;8.27;;;3.67;;
44842;SDS011;31884;52.538;13.820;2023-04-19T13:47:02;7.13;;;3.47;;
44842;SDS011;31884;52.538;13.820;2023-04-19T13:49:27;11.40;;;4.20;;
44842;SDS011;31884;52.538;13.820;2023-04-19T13:51:53;6.50;;;3.58;;
44842;SDS011;31884;52.538;13.820;2023-04-19T13:54:18;9.57;;;4.05;;
44842;SDS011;31884;52.538;13.820;2023-04-19T13:56:44;9.80;;;3.95;;
44842;SDS011;31884;52.538;13.820;2023-04-19T13:59:10;8.40;;;3.70;;
44842;SDS011;31884;52.538;13.820;2023-04-19T14:01:35;9.82;;;3.90;;
44842;SDS011;31884;52.538;13.820;2023-04-19T14:04:01;11.48;;;3.90;;
44842;SDS011;31884;52.538;13.820;2023-04-19T14:06:26;6.10;;;3.38;;
44842;SDS011;31884;52.538;13.820;2023-04-19T14:08:52;7.38;;;3.33;;
44842;SDS011;31884;52.538;13.820;2023-04-19T14:11:18;6.43;;;3.72;;
44842;SDS011;31884;52.538;13.820;2023-04-19T14:13:43;9.27;;;3.10;;
44842;SDS011;31884;52.538;13.820;2023-04-19T14:16:09;15.23;;;4.88;;
44842;SDS011;31884;52.538;13.820;2023-04-19T14:18:35;9.27;;;4.10;;
44842;SDS011;31884;52.538;13.820;2023-04-19T14:21:00;9.25;;;4.32;;
44842;SDS011;31884;52.538;13.820;2023-04-19T14:23:26;13.43;;;3.90;;
44842;SDS011;31884;52.538;13.820;2023-04-19T14:25:51;8.43;;;4.28;;
44842;SDS011;31884;52.538;13.820;2023-04-19T14:28:17;10.23;;;3.88;;
44842;SDS011;31884;52.538;13.820;2023-04-19T14:30:43;14.13;;;4.95;;
44842;SDS011;31884;52.538;13.820;2023-04-19T14:33:08;9.32;;;4.28;;
44842;SDS011;31884;52.538;13.820;2023-04-19T14:35:34;9.80;;;4.38;;
44842;SDS011;31884;52.538;13.820;2023-04-19T14:37:59;14.00;;;4.50;;
44842;SDS011;31884;52.538;13.820;2023-04-19T14:40:25;10.23;;;4.45;;
44842;SDS011;31884;52.538;13.820;2023-04-19T14:42:51;11.60;;;4.03;;
44842;SDS011;31884;52.538;13.820;2023-04-19T14:45:17;6.65;;;3.42;;
44842;SDS011;31884;52.538;13.820;2023-04-19T14:47:43;20.02;;;5.22;;